createdAt,value
2022-10-08T00:00:10.074Z,10.94
2022-10-08T00:02:37.024Z,10.92
2022-10-08T00:05:03.917Z,10.90
2022-10-08T00:07:30.675Z,11.02
2022-10-08T00:09:57.276Z,10.96
2022-10-08T00:12:24.057Z,11.01
2022-10-08T00:14:51.291Z,11.04
2022-10-08T00:17:18.059Z,10.92
2022-10-08T00:19:44.714Z,10.94
2022-10-08T00:22:11.406Z,10.86
2022-10-08T00:24:40.233Z,10.77
2022-10-08T00:27:06.896Z,10.79
2022-10-08T00:29:33.647Z,10.88
2022-10-08T00:32:00.342Z,10.87
2022-10-08T00:34:27.750Z,10.90
2022-10-08T00:36:55.425Z,10.84
2022-10-08T00:39:23.326Z,10.84
2022-10-08T00:41:52.389Z,10.86
2022-10-08T00:44:37.974Z,10.87
2022-10-08T00:47:04.688Z,10.78
2022-10-08T00:49:31.654Z,10.81
2022-10-08T00:51:59.199Z,10.91
2022-10-08T00:54:26.262Z,11.00
2022-10-08T00:56:53.976Z,11.01
2022-10-08T00:59:21.356Z,10.93
2022-10-08T01:01:48.375Z,10.87
2022-10-08T01:04:15.984Z,10.83
2022-10-08T01:06:42.664Z,10.84
2022-10-08T01:09:19.291Z,10.86
2022-10-08T01:11:53.630Z,10.86
2022-10-08T01:14:28.620Z,10.82
2022-10-08T01:17:04.269Z,10.75
2022-10-08T01:19:42.223Z,10.70
2022-10-08T01:22:29.874Z,10.62
2022-10-08T01:25:18.626Z,10.55
2022-10-08T01:27:47.006Z,10.61
2022-10-08T01:30:16.078Z,10.63
2022-10-08T01:33:01.962Z,10.63
2022-10-08T01:35:30.916Z,10.68
2022-10-08T01:38:03.295Z,10.56
2022-10-08T01:40:32.562Z,10.59
2022-10-08T01:43:04.346Z,10.50
2022-10-08T01:45:34.661Z,10.48
2022-10-08T01:48:04.472Z,10.44
2022-10-08T01:50:34.487Z,10.42
2022-10-08T01:53:04.375Z,10.47
2022-10-08T01:55:39.283Z,10.49
2022-10-08T01:58:14.680Z,10.48
2022-10-08T02:00:42.450Z,10.57
2022-10-08T02:03:13.945Z,10.65
2022-10-08T02:05:44.793Z,10.58
2022-10-08T02:08:11.593Z,10.58
2022-10-08T02:10:38.542Z,10.71
2022-10-08T02:13:05.332Z,10.68
2022-10-08T02:15:48.812Z,10.76
2022-10-08T02:18:18.494Z,10.58
2022-10-08T02:20:50.894Z,10.59
2022-10-08T02:23:30.084Z,10.54
2022-10-08T02:25:59.275Z,10.60
2022-10-08T02:28:29.118Z,10.46
2022-10-08T02:31:11.347Z,10.45
2022-10-08T02:33:40.104Z,10.51
2022-10-08T02:36:08.544Z,10.49
2022-10-08T02:38:38.561Z,10.53
2022-10-08T02:41:06.742Z,10.49
2022-10-08T02:43:35.908Z,10.41
2022-10-08T02:46:14.885Z,10.28
2022-10-08T02:48:44.754Z,10.21
2022-10-08T02:51:14.102Z,10.23
2022-10-08T02:53:41.981Z,10.16
2022-10-08T02:56:11.852Z,10.22
2022-10-08T02:58:38.586Z,10.27
2022-10-08T03:01:05.347Z,10.22
2022-10-08T03:03:37.321Z,10.10
2022-10-08T03:06:06.525Z,10.07
2022-10-08T03:08:35.475Z,10.21
2022-10-08T03:11:02.754Z,10.24
2022-10-08T03:13:30.831Z,10.38
2022-10-08T03:15:58.039Z,10.32
2022-10-08T03:18:25.758Z,10.39
2022-10-08T03:20:53.421Z,10.35
2022-10-08T03:23:20.211Z,10.32
2022-10-08T03:25:46.845Z,10.42
2022-10-08T03:28:13.635Z,10.40
2022-10-08T03:30:40.471Z,10.37
2022-10-08T03:33:07.172Z,10.24
2022-10-08T03:35:34.061Z,10.38
2022-10-08T03:38:00.867Z,10.40
2022-10-08T03:40:28.233Z,10.40
2022-10-08T03:42:55.031Z,10.33
2022-10-08T03:45:21.710Z,10.37
2022-10-08T03:47:52.607Z,10.35
2022-10-08T03:50:20.247Z,10.34
2022-10-08T03:52:47.166Z,10.32
2022-10-08T03:55:14.011Z,10.30
2022-10-08T03:57:40.982Z,10.32
2022-10-08T04:00:08.004Z,10.20
2022-10-08T04:02:34.916Z,10.17
2022-10-08T04:05:01.861Z,10.09
2022-10-08T04:07:28.603Z,9.99
2022-10-08T04:09:55.402Z,10.10
2022-10-08T04:12:22.511Z,10.14
2022-10-08T04:14:49.290Z,10.12
2022-10-08T04:17:16.072Z,10.13
2022-10-08T04:19:42.972Z,10.10
2022-10-08T04:22:09.591Z,10.12
2022-10-08T04:24:36.252Z,10.06
2022-10-08T04:27:03.138Z,10.12
2022-10-08T04:29:30.038Z,9.95
2022-10-08T04:31:56.824Z,10.03
2022-10-08T04:34:23.602Z,10.02
2022-10-08T04:36:50.302Z,10.13
2022-10-08T04:39:17.088Z,10.25
2022-10-08T04:41:46.388Z,10.25
2022-10-08T04:44:13.079Z,10.18
2022-10-08T04:46:39.729Z,10.45
2022-10-08T04:49:06.466Z,10.45
2022-10-08T04:51:33.169Z,10.50
2022-10-08T04:53:59.956Z,10.38
2022-10-08T04:56:28.112Z,10.56
2022-10-08T04:58:55.367Z,10.95
2022-10-08T05:01:22.615Z,11.40
2022-10-08T05:03:50.935Z,11.74
2022-10-08T05:06:19.283Z,12.12
2022-10-08T05:08:45.920Z,12.17
2022-10-08T05:11:14.018Z,12.56
2022-10-08T05:13:41.103Z,12.87
2022-10-08T05:16:12.520Z,13.38
2022-10-08T05:18:39.645Z,13.65
2022-10-08T05:21:07.874Z,14.19
2022-10-08T05:23:35.202Z,14.53
2022-10-08T05:26:05.335Z,15.01
2022-10-08T05:28:32.127Z,15.13
2022-10-08T05:31:02.214Z,16.00
2022-10-08T05:33:28.996Z,16.22
2022-10-08T05:35:55.619Z,16.59
2022-10-08T05:38:22.772Z,17.06
2022-10-08T05:40:49.715Z,16.58
2022-10-08T05:43:16.506Z,15.96
2022-10-08T05:45:49.544Z,15.66
2022-10-08T05:48:16.271Z,15.40
2022-10-08T05:50:42.935Z,16.38
2022-10-08T05:53:09.656Z,17.56
2022-10-08T05:55:36.365Z,18.21
2022-10-08T05:58:03.025Z,19.46
2022-10-08T06:00:29.734Z,20.02
2022-10-08T06:02:56.758Z,19.95
2022-10-08T06:05:23.445Z,20.61
2022-10-08T06:07:50.145Z,20.82
2022-10-08T06:10:16.874Z,20.84
2022-10-08T06:12:43.550Z,21.30
2022-10-08T06:15:10.295Z,21.63
2022-10-08T06:17:37.087Z,22.22
2022-10-08T06:20:03.926Z,22.58
2022-10-08T06:22:30.885Z,22.96
2022-10-08T06:24:57.635Z,23.12
2022-10-08T06:27:24.446Z,23.99
2022-10-08T06:29:51.131Z,24.05
2022-10-08T06:32:17.836Z,24.74
2022-10-08T06:34:44.503Z,24.65
2022-10-08T06:37:11.283Z,24.36
2022-10-08T06:39:38.105Z,24.91
2022-10-08T06:42:04.766Z,25.22
2022-10-08T06:44:31.451Z,24.99
2022-10-08T06:46:58.285Z,23.92
2022-10-08T06:49:26.875Z,24.46
2022-10-08T06:51:53.647Z,24.81
2022-10-08T06:54:20.512Z,24.75
2022-10-08T06:56:47.332Z,25.30
2022-10-08T06:59:14.184Z,25.05
2022-10-08T07:01:41.130Z,25.39
2022-10-08T07:04:07.863Z,25.94
2022-10-08T07:06:34.980Z,25.76
2022-10-08T07:09:02.173Z,25.57
2022-10-08T07:11:29.525Z,25.18
2022-10-08T07:13:56.896Z,25.19
2022-10-08T07:16:24.652Z,25.53
2022-10-08T07:18:52.769Z,25.51
2022-10-08T07:21:20.316Z,25.75
2022-10-08T07:23:46.998Z,25.56
2022-10-08T07:26:17.960Z,26.07
2022-10-08T07:28:48.732Z,26.15
2022-10-08T07:31:16.728Z,26.30
2022-10-08T07:33:43.432Z,26.30
2022-10-08T07:36:11.310Z,26.48
2022-10-08T07:38:39.179Z,26.33
2022-10-08T07:41:06.639Z,26.02
2022-10-08T07:43:33.351Z,26.14
2022-10-08T07:46:00.285Z,26.54
2022-10-08T07:48:33.000Z,26.51
2022-10-08T07:51:17.217Z,25.95
2022-10-08T07:53:44.729Z,25.87
2022-10-08T07:56:12.827Z,25.70
2022-10-08T07:58:40.226Z,25.68
2022-10-08T08:01:08.867Z,25.06
2022-10-08T08:03:35.601Z,25.39
2022-10-08T08:06:06.328Z,25.92
2022-10-08T08:08:34.547Z,25.07
2022-10-08T08:11:02.215Z,25.52
2022-10-08T08:13:33.025Z,25.13
2022-10-08T08:16:06.579Z,23.78
2022-10-08T08:18:35.415Z,23.49
2022-10-08T08:21:03.435Z,22.73
2022-10-08T08:23:30.938Z,22.07
2022-10-08T08:26:01.672Z,22.84
2022-10-08T08:28:29.264Z,23.12
2022-10-08T08:30:57.809Z,22.69
2022-10-08T08:33:24.523Z,23.27
2022-10-08T08:35:55.752Z,22.65
2022-10-08T08:38:22.394Z,22.51
2022-10-08T08:40:49.039Z,22.26
2022-10-08T08:43:15.918Z,22.42
2022-10-08T08:45:47.771Z,22.39
2022-10-08T08:48:19.441Z,22.05
2022-10-08T08:50:48.872Z,22.13
2022-10-08T08:53:15.787Z,23.27
2022-10-08T08:55:44.310Z,23.62
2022-10-08T08:58:34.642Z,23.21
2022-10-08T09:01:12.169Z,22.89
2022-10-08T09:03:42.528Z,23.26
2022-10-08T09:06:13.291Z,22.97
2022-10-08T09:08:46.009Z,23.65
2022-10-08T09:11:14.395Z,23.69
2022-10-08T09:13:41.147Z,22.85
2022-10-08T09:16:12.967Z,23.07
2022-10-08T09:18:46.824Z,22.40
2022-10-08T09:21:13.616Z,22.83
2022-10-08T09:23:40.260Z,23.64
2022-10-08T09:26:26.726Z,23.91
2022-10-08T09:28:54.856Z,22.51
2022-10-08T09:31:39.868Z,22.36
2022-10-08T09:34:18.824Z,22.28
2022-10-08T09:36:48.538Z,22.03
2022-10-08T09:39:35.037Z,22.68
2022-10-08T09:42:07.624Z,22.59
2022-10-08T09:44:40.489Z,23.02
2022-10-08T09:47:10.652Z,23.20
2022-10-08T09:49:40.242Z,21.97
2022-10-08T09:52:16.169Z,22.58
2022-10-08T09:54:48.937Z,22.79
2022-10-08T09:57:20.611Z,22.56
2022-10-08T09:59:55.173Z,22.74
2022-10-08T10:02:42.043Z,23.58
2022-10-08T10:05:21.739Z,23.62
2022-10-08T10:07:48.389Z,23.37
2022-10-08T10:10:17.720Z,23.56
2022-10-08T10:12:46.638Z,22.90
2022-10-08T10:15:16.589Z,23.36
2022-10-08T10:17:48.118Z,23.47
2022-10-08T10:20:14.832Z,23.69
2022-10-08T10:22:49.798Z,23.44
2022-10-08T10:25:32.167Z,23.65
2022-10-08T10:28:01.824Z,23.64
2022-10-08T10:30:28.940Z,23.23
2022-10-08T10:33:17.673Z,23.74
2022-10-08T10:35:50.317Z,23.88
2022-10-08T10:38:28.528Z,23.30
2022-10-08T10:41:04.055Z,23.50
2022-10-08T10:43:44.560Z,23.14
2022-10-08T10:46:37.487Z,23.68
2022-10-08T10:49:13.273Z,23.64
2022-10-08T10:52:00.192Z,22.94
2022-10-08T10:54:41.882Z,23.13
2022-10-08T10:57:25.710Z,23.52
2022-10-08T11:00:09.685Z,23.49
2022-10-08T11:02:52.065Z,23.58
2022-10-08T11:05:22.754Z,23.76
2022-10-08T11:07:49.432Z,23.24
2022-10-08T11:10:35.654Z,23.45
2022-10-08T11:13:05.277Z,23.27
2022-10-08T11:15:36.229Z,23.09
2022-10-08T11:18:35.193Z,23.19
2022-10-08T11:21:17.221Z,22.91
2022-10-08T11:23:52.759Z,23.22
2022-10-08T11:26:38.052Z,23.04
2022-10-08T11:29:16.392Z,22.92
2022-10-08T11:31:45.486Z,22.95
2022-10-08T11:34:21.623Z,22.80
2022-10-08T11:36:52.851Z,23.33
2022-10-08T11:39:21.133Z,23.04
2022-10-08T11:41:47.801Z,23.09
2022-10-08T11:44:15.381Z,22.73
2022-10-08T11:46:42.019Z,22.82
2022-10-08T11:49:14.591Z,22.87
2022-10-08T11:51:45.085Z,22.70
2022-10-08T11:54:32.351Z,22.98
2022-10-08T11:57:17.723Z,22.78
2022-10-08T11:59:46.511Z,22.79
2022-10-08T12:02:22.423Z,22.87
2022-10-08T12:04:50.441Z,22.67
2022-10-08T12:07:20.711Z,22.89
2022-10-08T12:10:02.593Z,23.02
2022-10-08T12:12:48.389Z,22.91
2022-10-08T12:15:40.453Z,22.88
2022-10-08T12:18:10.142Z,23.14
2022-10-08T12:20:38.244Z,23.41
2022-10-08T12:23:22.970Z,23.41
2022-10-08T12:25:55.795Z,23.26
2022-10-08T12:28:22.439Z,23.47
2022-10-08T12:30:53.482Z,23.60
2022-10-08T12:33:20.715Z,23.20
2022-10-08T12:35:47.301Z,22.98
2022-10-08T12:38:22.093Z,23.02
2022-10-08T12:40:57.602Z,23.08
2022-10-08T12:43:43.023Z,23.16
2022-10-08T12:46:18.801Z,22.81
2022-10-08T12:48:49.557Z,23.33
2022-10-08T12:51:35.008Z,23.36
2022-10-08T12:54:02.612Z,23.28
2022-10-08T12:56:29.982Z,23.52
2022-10-08T12:58:59.011Z,23.52
2022-10-08T13:01:26.405Z,23.14
2022-10-08T13:04:11.992Z,23.03
2022-10-08T13:06:39.064Z,23.11
2022-10-08T13:09:27.594Z,23.43
2022-10-08T13:11:59.388Z,23.26
2022-10-08T13:14:30.781Z,23.55
2022-10-08T13:16:59.231Z,23.38
2022-10-08T13:19:44.111Z,23.54
2022-10-08T13:22:24.230Z,23.11
2022-10-08T13:24:51.031Z,22.93
2022-10-08T13:27:26.125Z,23.27
2022-10-08T13:29:53.104Z,23.13
2022-10-08T13:32:21.663Z,23.01
2022-10-08T13:34:52.607Z,23.04
2022-10-08T13:37:22.472Z,22.96
2022-10-08T13:39:58.175Z,22.96
2022-10-08T13:42:26.518Z,22.84
2022-10-08T13:44:53.501Z,22.88
2022-10-08T13:47:21.579Z,22.92
2022-10-08T13:49:48.550Z,22.87
2022-10-08T13:52:15.952Z,22.92
2022-10-08T13:54:43.173Z,22.80
2022-10-08T13:57:10.291Z,22.94
2022-10-08T13:59:36.950Z,22.84
2022-10-08T14:02:03.705Z,22.81
2022-10-08T14:04:31.052Z,22.75
2022-10-08T14:06:58.690Z,22.80
2022-10-08T14:09:27.092Z,22.70
2022-10-08T14:11:59.305Z,22.74
2022-10-08T14:14:26.991Z,22.74
2022-10-08T14:16:53.919Z,22.75
2022-10-08T14:19:23.244Z,22.78
2022-10-08T14:21:50.593Z,22.47
2022-10-08T14:24:17.322Z,22.61
2022-10-08T14:26:43.979Z,22.47
2022-10-08T14:29:10.611Z,22.51
2022-10-08T14:31:37.356Z,22.59
2022-10-08T14:34:04.758Z,22.36
2022-10-08T14:36:36.021Z,22.32
2022-10-08T14:39:02.973Z,22.28
2022-10-08T14:41:30.003Z,22.24
2022-10-08T14:43:57.312Z,22.25
2022-10-08T14:46:23.998Z,22.28
2022-10-08T14:48:50.641Z,22.16
2022-10-08T14:51:17.570Z,22.06
2022-10-08T14:53:44.273Z,21.96
2022-10-08T14:56:12.889Z,21.97
2022-10-08T14:58:40.377Z,22.02
2022-10-08T15:01:07.177Z,21.97
2022-10-08T15:03:34.181Z,21.88
2022-10-08T15:06:01.170Z,21.85
2022-10-08T15:08:28.179Z,21.82
2022-10-08T15:10:54.821Z,21.75
2022-10-08T15:13:21.712Z,21.76
2022-10-08T15:15:48.572Z,21.64
2022-10-08T15:18:15.282Z,21.54
2022-10-08T15:20:41.937Z,21.61
2022-10-08T15:23:10.602Z,21.45
2022-10-08T15:25:37.308Z,21.45
2022-10-08T15:28:04.230Z,21.46
2022-10-08T15:30:30.932Z,21.38
2022-10-08T15:33:02.030Z,21.33
2022-10-08T15:35:28.773Z,21.28
2022-10-08T15:37:55.422Z,21.20
2022-10-08T15:40:22.047Z,21.18
2022-10-08T15:42:50.872Z,21.15
2022-10-08T15:45:17.570Z,21.07
2022-10-08T15:47:44.350Z,21.01
2022-10-08T15:50:11.000Z,20.96
2022-10-08T15:52:37.790Z,20.94
2022-10-08T15:55:04.542Z,20.77
2022-10-08T15:57:31.176Z,20.68
2022-10-08T15:59:58.581Z,20.44
2022-10-08T16:02:25.491Z,20.26
2022-10-08T16:04:53.430Z,20.10
2022-10-08T16:07:20.482Z,19.90
2022-10-08T16:09:47.163Z,19.72
2022-10-08T16:12:13.771Z,19.53
2022-10-08T16:14:40.769Z,19.39
2022-10-08T16:17:08.375Z,19.24
2022-10-08T16:19:35.030Z,19.09
2022-10-08T16:22:01.731Z,19.02
2022-10-08T16:24:28.393Z,18.90
2022-10-08T16:26:54.998Z,18.84
2022-10-08T16:29:21.802Z,18.78
2022-10-08T16:31:48.851Z,18.61
2022-10-08T16:34:23.035Z,18.52
2022-10-08T16:36:50.363Z,18.42
2022-10-08T16:39:18.463Z,18.42
2022-10-08T16:41:45.476Z,18.29
2022-10-08T16:44:13.440Z,18.24
2022-10-08T16:46:41.690Z,18.19
2022-10-08T16:49:12.661Z,18.21
2022-10-08T16:51:39.378Z,18.12
2022-10-08T16:54:06.955Z,18.00
2022-10-08T16:56:35.014Z,18.10
2022-10-08T16:59:03.949Z,18.02
2022-10-08T17:01:31.038Z,17.93
2022-10-08T17:03:58.030Z,17.79
2022-10-08T17:06:25.031Z,17.82
2022-10-08T17:08:51.969Z,17.71
2022-10-08T17:11:19.231Z,17.64
2022-10-08T17:13:52.806Z,17.62
2022-10-08T17:16:20.675Z,17.50
2022-10-08T17:18:49.817Z,17.38
2022-10-08T17:21:16.534Z,17.25
2022-10-08T17:23:43.229Z,17.16
2022-10-08T17:26:11.471Z,17.17
2022-10-08T17:28:39.866Z,17.13
2022-10-08T17:31:07.703Z,17.03
2022-10-08T17:33:36.084Z,17.06
2022-10-08T17:36:08.297Z,17.03
2022-10-08T17:38:35.801Z,16.92
2022-10-08T17:41:16.485Z,16.74
2022-10-08T17:43:43.428Z,16.54
2022-10-08T17:46:11.682Z,16.77
2022-10-08T17:48:38.636Z,16.74
2022-10-08T17:51:06.330Z,16.78
2022-10-08T17:53:33.252Z,16.73
2022-10-08T17:56:01.231Z,16.60
2022-10-08T17:58:28.022Z,16.62
2022-10-08T18:01:02.244Z,16.62
2022-10-08T18:03:29.044Z,16.61
2022-10-08T18:05:57.040Z,16.52
2022-10-08T18:08:24.359Z,16.43
2022-10-08T18:10:51.246Z,16.22
2022-10-08T18:13:18.093Z,16.27
2022-10-08T18:15:45.271Z,16.09
2022-10-08T18:18:12.135Z,16.17
2022-10-08T18:20:38.882Z,15.98
2022-10-08T18:23:08.532Z,15.95
2022-10-08T18:25:35.979Z,15.89
2022-10-08T18:28:03.173Z,15.93
2022-10-08T18:30:30.171Z,15.84
2022-10-08T18:32:57.381Z,15.91
2022-10-08T18:35:24.950Z,15.72
2022-10-08T18:37:52.119Z,15.76
2022-10-08T18:40:18.941Z,15.80
2022-10-08T18:42:46.314Z,15.70
2022-10-08T18:45:13.315Z,15.66
2022-10-08T18:47:40.245Z,15.44
2022-10-08T18:50:07.246Z,15.47
2022-10-08T18:52:34.415Z,15.46
2022-10-08T18:55:01.722Z,15.41
2022-10-08T18:57:28.523Z,15.39
2022-10-08T18:59:55.143Z,15.39
2022-10-08T19:02:21.927Z,15.33
2022-10-08T19:04:49.451Z,15.35
2022-10-08T19:07:16.091Z,15.33
2022-10-08T19:09:42.771Z,15.30
2022-10-08T19:12:09.469Z,15.33
2022-10-08T19:14:36.089Z,15.22
2022-10-08T19:17:03.111Z,15.20
2022-10-08T19:19:31.806Z,15.12
2022-10-08T19:22:01.452Z,15.12
2022-10-08T19:24:28.671Z,15.08
2022-10-08T19:26:56.191Z,14.98
2022-10-08T19:29:24.438Z,14.96
2022-10-08T19:31:51.441Z,14.95
2022-10-08T19:34:20.055Z,14.90
2022-10-08T19:36:47.045Z,14.81
2022-10-08T19:39:15.270Z,14.76
2022-10-08T19:41:42.511Z,14.82
2022-10-08T19:44:09.831Z,14.79
2022-10-08T19:46:36.675Z,14.81
2022-10-08T19:49:05.021Z,14.73
2022-10-08T19:51:32.261Z,14.71
2022-10-08T19:53:59.741Z,14.64
2022-10-08T19:56:26.880Z,14.59
2022-10-08T19:58:53.863Z,14.54
2022-10-08T20:01:22.362Z,14.43
2022-10-08T20:03:49.193Z,14.39
2022-10-08T20:06:21.849Z,14.31
2022-10-08T20:08:52.376Z,14.34
2022-10-08T20:11:19.368Z,14.38
2022-10-08T20:13:46.830Z,14.38
2022-10-08T20:16:15.100Z,14.46
2022-10-08T20:18:41.945Z,14.42
2022-10-08T20:21:09.802Z,14.43
2022-10-08T20:23:37.106Z,14.48
2022-10-08T20:26:10.141Z,14.44
2022-10-08T20:28:37.101Z,14.42
2022-10-08T20:31:13.167Z,14.37
2022-10-08T20:33:41.328Z,14.27
2022-10-08T20:36:08.792Z,14.31
2022-10-08T20:38:35.851Z,14.09
2022-10-08T20:41:02.535Z,14.28
2022-10-08T20:43:33.122Z,14.29
2022-10-08T20:46:04.045Z,14.31
2022-10-08T20:48:34.383Z,14.27
2022-10-08T20:51:05.338Z,14.33
2022-10-08T20:53:32.532Z,14.37
2022-10-08T20:56:06.984Z,14.40
2022-10-08T20:58:34.163Z,14.32
2022-10-08T21:01:11.481Z,14.34
2022-10-08T21:03:39.271Z,14.31
2022-10-08T21:06:07.010Z,14.21
2022-10-08T21:08:40.811Z,13.84
2022-10-08T21:11:09.401Z,13.67
2022-10-08T21:13:36.421Z,13.74
2022-10-08T21:16:04.991Z,13.89
2022-10-08T21:18:32.022Z,14.01
2022-10-08T21:21:06.008Z,14.10
2022-10-08T21:23:32.902Z,14.13
2022-10-08T21:26:09.602Z,14.13
2022-10-08T21:28:36.566Z,14.11
2022-10-08T21:31:04.433Z,14.12
2022-10-08T21:33:31.402Z,14.16
2022-10-08T21:35:58.322Z,14.08
2022-10-08T21:38:25.012Z,14.11
2022-10-08T21:40:58.862Z,13.97
2022-10-08T21:43:25.820Z,13.98
2022-10-08T21:45:56.572Z,14.00
2022-10-08T21:48:24.010Z,14.03
2022-10-08T21:50:57.691Z,14.05
2022-10-08T21:53:25.321Z,13.98
2022-10-08T21:56:25.643Z,14.05
2022-10-08T21:58:56.195Z,13.96
2022-10-08T22:01:43.407Z,14.00
2022-10-08T22:04:10.184Z,13.89
2022-10-08T22:06:38.515Z,13.87
2022-10-08T22:09:06.485Z,13.91
2022-10-08T22:11:33.696Z,13.87
2022-10-08T22:14:00.483Z,13.86
2022-10-08T22:16:29.771Z,13.82
2022-10-08T22:18:57.160Z,13.97
2022-10-08T22:21:23.978Z,13.84
2022-10-08T22:23:51.203Z,13.79
2022-10-08T22:26:19.773Z,13.78
2022-10-08T22:28:47.174Z,13.73
2022-10-08T22:31:14.884Z,13.72
2022-10-08T22:33:41.832Z,13.61
2022-10-08T22:36:10.304Z,13.58
2022-10-08T22:38:38.157Z,13.56
2022-10-08T22:41:06.255Z,13.61
2022-10-08T22:43:33.350Z,13.63
2022-10-08T22:46:04.679Z,13.61
2022-10-08T22:48:31.604Z,13.57
2022-10-08T22:51:09.560Z,13.71
2022-10-08T22:53:36.326Z,13.61
2022-10-08T22:56:03.952Z,13.57
2022-10-08T22:58:30.844Z,13.62
2022-10-08T23:01:01.794Z,13.62
2022-10-08T23:03:28.983Z,13.63
2022-10-08T23:06:04.877Z,13.52
2022-10-08T23:08:31.735Z,13.57
2022-10-08T23:10:58.674Z,13.46
2022-10-08T23:13:25.816Z,13.50
2022-10-08T23:15:59.263Z,13.45
2022-10-08T23:18:26.295Z,13.31
2022-10-08T23:20:53.109Z,13.27
2022-10-08T23:23:19.931Z,13.24
2022-10-08T23:26:00.244Z,13.04
2022-10-08T23:28:27.579Z,13.00
2022-10-08T23:30:54.494Z,12.93
2022-10-08T23:33:21.492Z,12.97
2022-10-08T23:35:55.714Z,12.93
2022-10-08T23:38:22.974Z,12.85
2022-10-08T23:40:50.463Z,12.93
2022-10-08T23:43:17.123Z,12.90
2022-10-08T23:45:44.273Z,12.68
2022-10-08T23:48:11.047Z,12.76
2022-10-08T23:50:38.591Z,12.73
2022-10-08T23:53:05.225Z,12.63
2022-10-08T23:55:31.944Z,12.65
2022-10-08T23:57:58.722Z,12.83
